Terminal Aerodrome Forecast
Issued by NWS

Current Version | Previous Version | Text Only | Print | Product List | Glossary On
Versions: 1 2 3 4 5 6 7 8 9 10 11 12 13 14 15 16 17 18 19 20
000
FTUS45 KABQ 170500
TAFLVS
TAF
KLVS 170526Z 1706/1806 18010KT P6SM FEW015 SCT150
     FM171300 27005KT P6SM SCT015 BKN120
     FM171800 15010KT P6SM BKN120
     FM180000 27010KT P6SM BKN150
     FM180200 36010KT P6SM SCT150=

USA.gov is the U.S. government's official web portal to all federal, state and local government web resources and services.